KGYR

Details ICAO KGYR
Name Phoenix Goodyear
Region United States
Timezone America/Phoenix (UTC-7.0)
Plans Departing 30
Arriving 17
Stats Elevation 968 ft / 295 m (AMSL)
Location 33.423725° -112.374458°
Runways 1
Magnetic Variation 10.423° E
Sunrise 2017-12-16 14:28:18 UTC / 2017-12-16 07:28:18 Local
Sunset 2017-12-17 00:25:01 UTC / 2017-12-16 17:25:01 Local
Advertisement - Login to hide

Runways

ID Width Length Bearing (true) Bearing (mag) Surface Threshold Offset Overrun Length
03 151 ft / 46 m 8,509 ft / 2,594 m 39.46° 29.04° Asphalt 0 ft / 0 m 200 ft / 61 m
21 151 ft / 46 m 8,509 ft / 2,594 m 219.46° 209.04° Asphalt 2,100 ft / 640 m 0 ft / 0 m

Map

Weather


0- 5 10 15 20 25 30 35+ Temperature / ° C

Clouds and Precipitation
Forecast for 2017-12-16 12:00 UTC. Updated 2 hours ago

Ground ~20,000 ft ~40,000 ft Winds

METAR

KGYR 161250Z 02006KT 10SM SKC 10/M08 A2982 RMK FIRST

TAF

Not found

Frequencies

Recorded 118.35 MHz ATIS
Ground 121.70 MHz GND
Approach 125.45 MHz LUKE APP/DEP
Unicom 122.95 MHz UNICOM
Tower 120.10 MHz GOODYEAR TWR
Warning: Do not use this data for real-world aviation or navigation. No guarantee of current accuracy is given.